FASB

Springbok Airport

Springbok, South Africa
METAR FASB 160742Z 04003KT CAVOK 13/M02 Q1022
Observed Flight Rules
Aug-16 @ 07:42 UTC (10 hours ago) Visual Flight Rules
Wind Visibility Clouds
40° at 3 knots 10,000+ meters
  • Clear skies
Temperatures Readings
Current 13°C / 55°F
Dewpoint -2°C / 28°F
Humidity 36%
Altimeter 30.18" Hg
Pressure 1022 hPa
Elevation 813
METAR FASB 160742Z 04003KT CAVOK 13/M02 Q1022
Observed Flight Rules
Aug-16 @ 07:42 UTC
(10 hours ago)
VFR
Wind Visibility
40° at 3 knots 10,000+ meters
Clouds
  • Clear skies
Temperature Dewpoint
13°C / 55°F -2°C / 28°F
Humidity Altimeter Pressure
36% 30.18" Hg 1022 hPa